WRC122 LTAC-LCLK
Flight info
| Callsign | WRC122 |
|---|---|
| Flight time | 1h 7m |
| Altitude | 39000 |
| Route | TELVO UA28 ERKUK UM856 OBRUK UA28 DOREN DCT BONEK |
| Aircraft | A20N/M-SDE2E3FGHIRWXY/LB1 |
Departure
| Time | 2026-05-07 20:33 |
|---|---|
| Airport | Esenboğa International Airport (LTAC) |
Arrival
| Time | 2026-05-07 21:41 |
|---|---|
| Airport | Larnaca International Airport (LCLK) |
| Time | Latitude | Longitude | Altitude | Speed | Heading |
|---|---|---|---|---|---|
| 2026-05-07 20:11 | 40.11682 | 32.99355 | 3132 ft | 0 kts | 164° |
| 2026-05-07 20:24 | 40.11694 | 32.99353 | 3132 ft | 2 kts | 174° |
| 2026-05-07 20:24 | 40.11709 | 32.99348 | 3132 ft | 2 kts | 161° |
| 2026-05-07 20:24 | 40.11723 | 32.99342 | 3132 ft | 2 kts | 165° |
| 2026-05-07 20:25 | 40.11737 | 32.99337 | 3132 ft | 2 kts | 165° |
| 2026-05-07 20:25 | 40.11752 | 32.99335 | 3132 ft | 2 kts | 195° |
| 2026-05-07 20:25 | 40.11766 | 32.99343 | 3132 ft | 1 kts | 230° |
| 2026-05-07 20:25 | 40.11770 | 32.99353 | 3132 ft | 2 kts | 265° |
| 2026-05-07 20:26 | 40.11771 | 32.99364 | 3133 ft | 1 kts | 259° |
| 2026-05-07 20:26 | 40.11771 | 32.99368 | 3133 ft | 0 kts | 256° |
| 2026-05-07 20:28 | 40.11771 | 32.99366 | 3133 ft | 1 kts | 255° |
| 2026-05-07 20:28 | 40.11765 | 32.99343 | 3132 ft | 4 kts | 249° |
| 2026-05-07 20:29 | 40.11749 | 32.99290 | 3131 ft | 7 kts | 250° |
| 2026-05-07 20:29 | 40.11726 | 32.99210 | 3129 ft | 11 kts | 246° |
| 2026-05-07 20:29 | 40.11684 | 32.99112 | 3128 ft | 13 kts | 240° |
| 2026-05-07 20:29 | 40.11630 | 32.98998 | 3125 ft | 15 kts | 246° |
| 2026-05-07 20:30 | 40.11649 | 32.98875 | 3123 ft | 14 kts | 269° |
| 2026-05-07 20:30 | 40.11577 | 32.98782 | 3121 ft | 15 kts | 216° |
| 2026-05-07 20:30 | 40.11485 | 32.98694 | 3119 ft | 16 kts | 216° |
| 2026-05-07 20:30 | 40.11391 | 32.98600 | 3117 ft | 17 kts | 223° |
| 2026-05-07 20:31 | 40.11351 | 32.98468 | 3115 ft | 12 kts | 276° |
| 2026-05-07 20:31 | 40.11356 | 32.98438 | 3114 ft | 0 kts | 288° |
| 2026-05-07 20:31 | 40.11359 | 32.98429 | 3114 ft | 3 kts | 291° |
| 2026-05-07 20:32 | 40.11375 | 32.98390 | 3113 ft | 6 kts | 305° |
| 2026-05-07 20:32 | 40.11417 | 32.98350 | 3113 ft | 8 kts | 343° |
| 2026-05-07 20:32 | 40.11467 | 32.98375 | 3113 ft | 2 kts | 36° |
| 2026-05-07 20:32 | 40.11518 | 32.98422 | 3114 ft | 37 kts | 36° |
| 2026-05-07 20:33 | 40.11932 | 32.98817 | 3122 ft | 106 kts | 36° |
| 2026-05-07 20:33 | 40.12696 | 32.99543 | 3130 ft | 162 kts | 35° |
| 2026-05-07 20:33 | 40.13676 | 33.00466 | 3475 ft | 180 kts | 36° |
| 2026-05-07 20:33 | 40.14679 | 33.01448 | 4160 ft | 182 kts | 37° |
| 2026-05-07 20:34 | 40.15644 | 33.02432 | 4933 ft | 179 kts | 39° |
| 2026-05-07 20:34 | 40.16640 | 33.03486 | 5400 ft | 192 kts | 39° |
| 2026-05-07 20:34 | 40.17735 | 33.04612 | 5811 ft | 209 kts | 38° |
| 2026-05-07 20:34 | 40.18968 | 33.05850 | 6150 ft | 233 kts | 38° |
| 2026-05-07 20:35 | 40.20133 | 33.07379 | 6646 ft | 247 kts | 60° |
| 2026-05-07 20:35 | 40.20643 | 33.09510 | 7391 ft | 250 kts | 88° |
| 2026-05-07 20:35 | 40.20334 | 33.11742 | 7984 ft | 261 kts | 115° |
| 2026-05-07 20:35 | 40.19273 | 33.13781 | 8523 ft | 275 kts | 128° |
| 2026-05-07 20:36 | 40.18064 | 33.15735 | 9283 ft | 279 kts | 129° |
| 2026-05-07 20:36 | 40.16835 | 33.17719 | 10084 ft | 282 kts | 129° |
| 2026-05-07 20:36 | 40.15604 | 33.19723 | 10774 ft | 288 kts | 129° |
| 2026-05-07 20:36 | 40.14335 | 33.21802 | 11197 ft | 303 kts | 129° |
| 2026-05-07 20:37 | 40.13002 | 33.23997 | 11856 ft | 310 kts | 129° |
| 2026-05-07 20:37 | 40.11670 | 33.26197 | 12567 ft | 313 kts | 129° |
| 2026-05-07 20:37 | 40.10319 | 33.28428 | 13005 ft | 315 kts | 129° |
| 2026-05-07 20:37 | 40.08952 | 33.30685 | 13177 ft | 315 kts | 129° |
| 2026-05-07 20:38 | 40.07600 | 33.32919 | 13177 ft | 315 kts | 129° |
| 2026-05-07 20:38 | 40.06234 | 33.35174 | 13183 ft | 315 kts | 129° |
| 2026-05-07 20:38 | 40.04877 | 33.37410 | 13185 ft | 315 kts | 130° |
| 2026-05-07 20:38 | 40.03270 | 33.39366 | 13170 ft | 313 kts | 150° |
| 2026-05-07 20:39 | 40.01264 | 33.40332 | 13178 ft | 312 kts | 172° |
| 2026-05-07 20:39 | 39.99062 | 33.40183 | 13326 ft | 321 kts | 195° |
| 2026-05-07 20:39 | 39.97038 | 33.38926 | 14073 ft | 323 kts | 211° |
| 2026-05-07 20:39 | 39.95193 | 33.37372 | 14919 ft | 321 kts | 211° |
| 2026-05-07 20:40 | 39.93305 | 33.35760 | 15614 ft | 324 kts | 211° |
| 2026-05-07 20:40 | 39.91409 | 33.34153 | 16289 ft | 326 kts | 211° |
| 2026-05-07 20:40 | 39.89499 | 33.32547 | 16958 ft | 328 kts | 211° |
| 2026-05-07 20:40 | 39.87561 | 33.30932 | 17615 ft | 330 kts | 211° |
| 2026-05-07 20:41 | 39.85640 | 33.29333 | 18245 ft | 333 kts | 211° |
| 2026-05-07 20:41 | 39.83684 | 33.27697 | 18866 ft | 335 kts | 211° |
| 2026-05-07 20:41 | 39.81729 | 33.26059 | 19470 ft | 337 kts | 212° |
| 2026-05-07 20:41 | 39.79753 | 33.24403 | 20061 ft | 339 kts | 212° |
| 2026-05-07 20:42 | 39.77787 | 33.22757 | 20642 ft | 341 kts | 212° |
| 2026-05-07 20:42 | 39.75779 | 33.21076 | 21220 ft | 343 kts | 212° |
| 2026-05-07 20:42 | 39.73742 | 33.19373 | 21785 ft | 346 kts | 212° |
| 2026-05-07 20:42 | 39.71733 | 33.17696 | 22332 ft | 348 kts | 212° |
| 2026-05-07 20:43 | 39.69696 | 33.16000 | 22873 ft | 350 kts | 212° |
| 2026-05-07 20:43 | 39.67643 | 33.14290 | 23403 ft | 352 kts | 213° |
| 2026-05-07 20:43 | 39.65588 | 33.12580 | 23915 ft | 355 kts | 213° |
| 2026-05-07 20:43 | 39.63511 | 33.10852 | 24258 ft | 361 kts | 213° |
| 2026-05-07 20:44 | 39.61354 | 33.09060 | 24592 ft | 368 kts | 213° |
| 2026-05-07 20:44 | 39.59217 | 33.07284 | 25049 ft | 370 kts | 213° |
| 2026-05-07 20:44 | 39.57042 | 33.05481 | 25518 ft | 372 kts | 213° |
| 2026-05-07 20:44 | 39.54839 | 33.03725 | 25956 ft | 375 kts | 211° |
| 2026-05-07 20:45 | 39.52525 | 33.02113 | 26391 ft | 377 kts | 208° |
| 2026-05-07 20:45 | 39.50188 | 33.00612 | 26810 ft | 379 kts | 208° |
| 2026-05-07 20:45 | 39.47801 | 32.99075 | 27213 ft | 382 kts | 208° |
| 2026-05-07 20:45 | 39.45434 | 32.97555 | 27602 ft | 383 kts | 208° |
| 2026-05-07 20:46 | 39.43035 | 32.96017 | 27983 ft | 385 kts | 208° |
| 2026-05-07 20:46 | 39.40621 | 32.94487 | 28339 ft | 388 kts | 206° |
| 2026-05-07 20:46 | 39.38080 | 32.93342 | 28656 ft | 393 kts | 196° |
| 2026-05-07 20:46 | 39.35350 | 32.92791 | 28975 ft | 398 kts | 187° |
| 2026-05-07 20:47 | 39.32562 | 32.92865 | 29278 ft | 404 kts | 179° |
| 2026-05-07 20:47 | 39.29745 | 32.93221 | 29577 ft | 406 kts | 178° |
| 2026-05-07 20:47 | 39.26944 | 32.93612 | 29842 ft | 408 kts | 178° |
| 2026-05-07 20:47 | 39.24121 | 32.94008 | 30097 ft | 411 kts | 178° |
| 2026-05-07 20:48 | 39.21273 | 32.94403 | 30343 ft | 413 kts | 178° |
| 2026-05-07 20:48 | 39.18388 | 32.94836 | 30583 ft | 415 kts | 177° |
| 2026-05-07 20:48 | 39.15521 | 32.95281 | 30812 ft | 417 kts | 177° |
| 2026-05-07 20:48 | 39.12644 | 32.95726 | 31035 ft | 419 kts | 177° |
| 2026-05-07 20:49 | 39.09758 | 32.96170 | 31261 ft | 420 kts | 178° |
| 2026-05-07 20:49 | 39.06860 | 32.96614 | 31482 ft | 421 kts | 178° |
| 2026-05-07 20:49 | 39.03912 | 32.97062 | 31691 ft | 423 kts | 178° |
| 2026-05-07 20:49 | 39.01007 | 32.97500 | 31890 ft | 424 kts | 177° |
| 2026-05-07 20:50 | 38.98088 | 32.97939 | 32079 ft | 425 kts | 177° |
| 2026-05-07 20:50 | 38.95155 | 32.98378 | 32273 ft | 427 kts | 176° |
| 2026-05-07 20:50 | 38.92179 | 32.98825 | 32464 ft | 428 kts | 176° |
| 2026-05-07 20:50 | 38.89257 | 32.99265 | 32686 ft | 428 kts | 176° |
| 2026-05-07 20:51 | 38.86288 | 32.99711 | 32925 ft | 428 kts | 176° |
| 2026-05-07 20:51 | 38.83335 | 33.00156 | 33159 ft | 427 kts | 176° |
| 2026-05-07 20:51 | 38.80356 | 33.00605 | 33384 ft | 428 kts | 176° |
| 2026-05-07 20:51 | 38.77427 | 33.01045 | 33607 ft | 427 kts | 176° |
| 2026-05-07 20:52 | 38.74495 | 33.01486 | 33835 ft | 427 kts | 176° |
| 2026-05-07 20:52 | 38.71539 | 33.01930 | 34057 ft | 427 kts | 176° |
| 2026-05-07 20:52 | 38.68608 | 33.02365 | 34264 ft | 427 kts | 176° |
| 2026-05-07 20:52 | 38.65670 | 33.02798 | 34468 ft | 426 kts | 176° |
| 2026-05-07 20:53 | 38.62710 | 33.03233 | 34675 ft | 426 kts | 176° |
| 2026-05-07 20:53 | 38.59793 | 33.03658 | 34869 ft | 426 kts | 176° |
| 2026-05-07 20:53 | 38.56855 | 33.04086 | 35061 ft | 426 kts | 176° |
| 2026-05-07 20:53 | 38.53925 | 33.04514 | 35259 ft | 426 kts | 176° |
| 2026-05-07 20:54 | 38.50979 | 33.04943 | 35448 ft | 426 kts | 176° |
| 2026-05-07 20:54 | 38.48038 | 33.05370 | 35627 ft | 425 kts | 176° |
| 2026-05-07 20:54 | 38.45114 | 33.05794 | 35800 ft | 425 kts | 176° |
| 2026-05-07 20:54 | 38.42166 | 33.06222 | 36019 ft | 424 kts | 176° |
| 2026-05-07 20:55 | 38.39240 | 33.06646 | 36268 ft | 422 kts | 176° |
| 2026-05-07 20:55 | 38.36348 | 33.07064 | 36516 ft | 420 kts | 176° |
| 2026-05-07 20:55 | 38.33472 | 33.07481 | 36761 ft | 417 kts | 176° |
| 2026-05-07 20:55 | 38.30613 | 33.07894 | 37010 ft | 415 kts | 176° |
| 2026-05-07 20:56 | 38.27737 | 33.08308 | 37259 ft | 412 kts | 176° |
| 2026-05-07 20:56 | 38.24894 | 33.08718 | 37508 ft | 410 kts | 176° |
| 2026-05-07 20:56 | 38.22059 | 33.09126 | 37689 ft | 409 kts | 176° |
| 2026-05-07 20:57 | 38.16399 | 33.09938 | 37765 ft | 415 kts | 176° |
| 2026-05-07 20:57 | 38.10611 | 33.10764 | 37842 ft | 419 kts | 176° |
| 2026-05-07 20:58 | 38.04809 | 33.11595 | 37897 ft | 424 kts | 176° |
| 2026-05-07 20:58 | 37.98907 | 33.12466 | 37961 ft | 429 kts | 176° |
| 2026-05-07 20:59 | 37.92977 | 33.13377 | 38159 ft | 429 kts | 176° |
| 2026-05-07 20:59 | 37.90057 | 33.13821 | 38283 ft | 429 kts | 176° |
| 2026-05-07 20:59 | 37.87079 | 33.14272 | 38398 ft | 428 kts | 176° |
| 2026-05-07 20:59 | 37.84122 | 33.14717 | 38506 ft | 428 kts | 176° |
| 2026-05-07 21:00 | 37.81179 | 33.15158 | 38599 ft | 428 kts | 176° |
| 2026-05-07 21:00 | 37.75262 | 33.16046 | 38759 ft | 429 kts | 176° |
| 2026-05-07 21:01 | 37.69345 | 33.16933 | 38944 ft | 429 kts | 176° |
| 2026-05-07 21:01 | 37.63432 | 33.17819 | 39108 ft | 429 kts | 176° |
| 2026-05-07 21:02 | 37.57505 | 33.18706 | 39239 ft | 429 kts | 176° |
| 2026-05-07 21:02 | 37.51616 | 33.19585 | 39249 ft | 429 kts | 176° |
| 2026-05-07 21:03 | 37.45687 | 33.20471 | 39251 ft | 429 kts | 176° |
| 2026-05-07 21:03 | 37.39784 | 33.21348 | 39250 ft | 429 kts | 176° |
| 2026-05-07 21:04 | 37.33836 | 33.22231 | 39252 ft | 429 kts | 176° |
| 2026-05-07 21:04 | 37.27908 | 33.23110 | 39252 ft | 429 kts | 176° |
| 2026-05-07 21:05 | 37.21989 | 33.23987 | 39251 ft | 429 kts | 176° |
| 2026-05-07 21:05 | 37.16065 | 33.24862 | 39250 ft | 429 kts | 176° |
| 2026-05-07 21:06 | 37.10162 | 33.25732 | 39251 ft | 429 kts | 176° |
| 2026-05-07 21:06 | 37.04246 | 33.26602 | 39245 ft | 427 kts | 176° |
| 2026-05-07 21:07 | 36.98389 | 33.27461 | 39224 ft | 424 kts | 176° |
| 2026-05-07 21:07 | 36.92571 | 33.28313 | 39199 ft | 422 kts | 176° |
| 2026-05-07 21:08 | 36.86740 | 33.29075 | 39183 ft | 420 kts | 179° |
| 2026-05-07 21:08 | 36.80916 | 33.29191 | 39176 ft | 419 kts | 183° |
| 2026-05-07 21:09 | 36.75102 | 33.29130 | 39174 ft | 419 kts | 183° |
| 2026-05-07 21:09 | 36.69286 | 33.29070 | 39173 ft | 419 kts | 183° |
| 2026-05-07 21:10 | 36.63474 | 33.29010 | 39172 ft | 419 kts | 183° |
| 2026-05-07 21:10 | 36.57669 | 33.28948 | 39174 ft | 419 kts | 183° |
| 2026-05-07 21:11 | 36.51859 | 33.28888 | 39172 ft | 419 kts | 183° |
| 2026-05-07 21:11 | 36.48934 | 33.28856 | 38941 ft | 421 kts | 183° |
| 2026-05-07 21:11 | 36.43088 | 33.28794 | 37895 ft | 421 kts | 183° |
| 2026-05-07 21:12 | 36.40168 | 33.28763 | 37340 ft | 421 kts | 183° |
| 2026-05-07 21:12 | 36.37236 | 33.28734 | 36778 ft | 421 kts | 183° |
| 2026-05-07 21:12 | 36.34331 | 33.28708 | 36189 ft | 420 kts | 183° |
| 2026-05-07 21:12 | 36.31429 | 33.28680 | 35591 ft | 420 kts | 183° |
| 2026-05-07 21:13 | 36.28480 | 33.28653 | 34991 ft | 420 kts | 183° |
| 2026-05-07 21:13 | 36.25547 | 33.28624 | 34360 ft | 420 kts | 183° |
| 2026-05-07 21:13 | 36.22686 | 33.28593 | 33732 ft | 420 kts | 183° |
| 2026-05-07 21:13 | 36.19708 | 33.28562 | 33088 ft | 419 kts | 183° |
| 2026-05-07 21:14 | 36.16823 | 33.28532 | 32456 ft | 419 kts | 183° |
| 2026-05-07 21:14 | 36.13891 | 33.28521 | 31823 ft | 418 kts | 182° |
| 2026-05-07 21:14 | 36.11005 | 33.28572 | 31204 ft | 418 kts | 181° |
| 2026-05-07 21:14 | 36.08133 | 33.28639 | 30578 ft | 416 kts | 181° |
| 2026-05-07 21:15 | 36.05236 | 33.28706 | 30137 ft | 410 kts | 181° |
| 2026-05-07 21:15 | 36.02417 | 33.28690 | 29713 ft | 403 kts | 184° |
| 2026-05-07 21:15 | 35.99642 | 33.28583 | 29285 ft | 397 kts | 184° |
| 2026-05-07 21:15 | 35.96910 | 33.28467 | 28854 ft | 392 kts | 185° |
| 2026-05-07 21:16 | 35.94191 | 33.28149 | 28414 ft | 386 kts | 190° |
| 2026-05-07 21:16 | 35.91582 | 33.27532 | 27985 ft | 381 kts | 195° |
| 2026-05-07 21:16 | 35.89060 | 33.26635 | 27557 ft | 376 kts | 199° |
| 2026-05-07 21:16 | 35.86607 | 33.25644 | 27148 ft | 372 kts | 199° |
| 2026-05-07 21:17 | 35.84160 | 33.24641 | 26732 ft | 368 kts | 199° |
| 2026-05-07 21:17 | 35.81735 | 33.23648 | 26317 ft | 365 kts | 199° |
| 2026-05-07 21:17 | 35.79341 | 33.22667 | 25909 ft | 362 kts | 199° |
| 2026-05-07 21:17 | 35.76979 | 33.21702 | 25509 ft | 359 kts | 199° |
| 2026-05-07 21:18 | 35.74603 | 33.20732 | 25097 ft | 356 kts | 199° |
| 2026-05-07 21:18 | 35.72298 | 33.19791 | 24717 ft | 353 kts | 199° |
| 2026-05-07 21:18 | 35.69982 | 33.18847 | 24323 ft | 350 kts | 199° |
| 2026-05-07 21:18 | 35.67662 | 33.17902 | 23920 ft | 348 kts | 199° |
| 2026-05-07 21:19 | 35.65383 | 33.16975 | 23523 ft | 345 kts | 199° |
| 2026-05-07 21:19 | 35.63132 | 33.16059 | 23125 ft | 343 kts | 199° |
| 2026-05-07 21:19 | 35.60857 | 33.15134 | 22723 ft | 341 kts | 199° |
| 2026-05-07 21:19 | 35.58649 | 33.14236 | 22332 ft | 338 kts | 199° |
| 2026-05-07 21:20 | 35.56405 | 33.13325 | 21937 ft | 336 kts | 199° |
| 2026-05-07 21:20 | 35.54220 | 33.12439 | 21545 ft | 335 kts | 199° |
| 2026-05-07 21:20 | 35.52008 | 33.11541 | 21148 ft | 333 kts | 199° |
| 2026-05-07 21:20 | 35.49822 | 33.10656 | 20758 ft | 331 kts | 199° |
| 2026-05-07 21:21 | 35.47646 | 33.09774 | 20366 ft | 329 kts | 199° |
| 2026-05-07 21:21 | 35.45472 | 33.08895 | 19974 ft | 327 kts | 199° |
| 2026-05-07 21:21 | 35.43338 | 33.08031 | 19585 ft | 326 kts | 199° |
| 2026-05-07 21:21 | 35.41188 | 33.07162 | 19193 ft | 324 kts | 199° |
| 2026-05-07 21:22 | 35.39031 | 33.06290 | 18801 ft | 323 kts | 199° |
| 2026-05-07 21:22 | 35.36918 | 33.05436 | 18415 ft | 321 kts | 199° |
| 2026-05-07 21:22 | 35.34822 | 33.04590 | 18031 ft | 319 kts | 199° |
| 2026-05-07 21:22 | 35.32710 | 33.03737 | 17645 ft | 318 kts | 199° |
| 2026-05-07 21:23 | 35.30634 | 33.02900 | 17266 ft | 316 kts | 199° |
| 2026-05-07 21:23 | 35.28547 | 33.02058 | 16884 ft | 315 kts | 199° |
| 2026-05-07 21:23 | 35.26481 | 33.01225 | 16504 ft | 313 kts | 199° |
| 2026-05-07 21:23 | 35.24414 | 33.00392 | 16125 ft | 312 kts | 199° |
| 2026-05-07 21:24 | 35.22367 | 32.99568 | 15749 ft | 310 kts | 199° |
| 2026-05-07 21:24 | 35.20319 | 32.98743 | 15372 ft | 309 kts | 199° |
| 2026-05-07 21:24 | 35.18277 | 32.97922 | 14997 ft | 308 kts | 199° |
| 2026-05-07 21:24 | 35.16277 | 32.97118 | 14629 ft | 306 kts | 199° |
| 2026-05-07 21:25 | 35.14248 | 32.96304 | 14255 ft | 305 kts | 199° |
| 2026-05-07 21:25 | 35.12250 | 32.95519 | 13883 ft | 304 kts | 195° |
| 2026-05-07 21:25 | 35.10143 | 32.95305 | 13487 ft | 305 kts | 174° |
| 2026-05-07 21:25 | 35.08147 | 32.96057 | 13111 ft | 306 kts | 152° |
| 2026-05-07 21:26 | 35.06486 | 32.97684 | 12729 ft | 307 kts | 130° |
| 2026-05-07 21:26 | 35.05427 | 32.99931 | 12362 ft | 307 kts | 112° |
| 2026-05-07 21:26 | 35.04718 | 33.02370 | 12016 ft | 306 kts | 109° |
| 2026-05-07 21:26 | 35.04047 | 33.04833 | 11665 ft | 304 kts | 109° |
| 2026-05-07 21:27 | 35.03375 | 33.07268 | 11316 ft | 302 kts | 110° |
| 2026-05-07 21:27 | 35.02692 | 33.09684 | 10966 ft | 300 kts | 110° |
| 2026-05-07 21:27 | 35.01997 | 33.12116 | 10612 ft | 298 kts | 110° |
| 2026-05-07 21:27 | 35.01317 | 33.14480 | 10267 ft | 296 kts | 110° |
| 2026-05-07 21:28 | 35.00636 | 33.16846 | 10113 ft | 287 kts | 110° |
| 2026-05-07 21:28 | 35.00030 | 33.18952 | 10064 ft | 280 kts | 110° |
| 2026-05-07 21:28 | 34.99387 | 33.21176 | 9869 ft | 278 kts | 110° |
| 2026-05-07 21:28 | 34.98750 | 33.23377 | 9547 ft | 276 kts | 110° |
| 2026-05-07 21:29 | 34.98114 | 33.25572 | 9235 ft | 274 kts | 110° |
| 2026-05-07 21:29 | 34.97486 | 33.27736 | 8929 ft | 271 kts | 110° |
| 2026-05-07 21:29 | 34.96854 | 33.29918 | 8622 ft | 269 kts | 110° |
| 2026-05-07 21:29 | 34.96235 | 33.32052 | 8322 ft | 267 kts | 110° |
| 2026-05-07 21:30 | 34.95621 | 33.34166 | 8026 ft | 265 kts | 110° |
| 2026-05-07 21:30 | 34.95005 | 33.36285 | 7729 ft | 264 kts | 110° |
| 2026-05-07 21:30 | 34.94392 | 33.38388 | 7436 ft | 263 kts | 110° |
| 2026-05-07 21:30 | 34.93770 | 33.40521 | 7140 ft | 262 kts | 110° |
| 2026-05-07 21:31 | 34.93162 | 33.42606 | 6852 ft | 262 kts | 110° |
| 2026-05-07 21:31 | 34.92561 | 33.44670 | 6566 ft | 258 kts | 110° |
| 2026-05-07 21:31 | 34.91964 | 33.46724 | 6283 ft | 254 kts | 110° |
| 2026-05-07 21:31 | 34.91378 | 33.48737 | 6008 ft | 250 kts | 109° |
| 2026-05-07 21:32 | 34.90803 | 33.50703 | 5740 ft | 246 kts | 109° |
| 2026-05-07 21:32 | 34.90233 | 33.52650 | 5475 ft | 242 kts | 109° |
| 2026-05-07 21:32 | 34.89666 | 33.54576 | 5211 ft | 237 kts | 109° |
| 2026-05-07 21:32 | 34.89108 | 33.56436 | 4958 ft | 233 kts | 109° |
| 2026-05-07 21:33 | 34.88562 | 33.58266 | 4709 ft | 229 kts | 109° |
| 2026-05-07 21:33 | 34.88026 | 33.60077 | 4466 ft | 224 kts | 109° |
| 2026-05-07 21:33 | 34.87607 | 33.61887 | 4211 ft | 220 kts | 94° |
| 2026-05-07 21:33 | 34.87687 | 33.63729 | 4027 ft | 212 kts | 72° |
| 2026-05-07 21:34 | 34.88189 | 33.65429 | 4030 ft | 212 kts | 65° |
| 2026-05-07 21:34 | 34.88775 | 33.67057 | 3903 ft | 208 kts | 64° |
| 2026-05-07 21:34 | 34.89359 | 33.68670 | 3537 ft | 210 kts | 64° |
| 2026-05-07 21:34 | 34.89938 | 33.70296 | 3171 ft | 209 kts | 64° |
| 2026-05-07 21:35 | 34.90501 | 33.71907 | 2897 ft | 208 kts | 65° |
| 2026-05-07 21:35 | 34.91064 | 33.73531 | 2858 ft | 208 kts | 65° |
| 2026-05-07 21:35 | 34.91625 | 33.75156 | 2819 ft | 208 kts | 65° |
| 2026-05-07 21:35 | 34.92189 | 33.76791 | 2781 ft | 208 kts | 65° |
| 2026-05-07 21:36 | 34.92810 | 33.78383 | 2709 ft | 206 kts | 50° |
| 2026-05-07 21:36 | 34.93857 | 33.79405 | 2682 ft | 187 kts | 20° |
| 2026-05-07 21:36 | 34.95084 | 33.79663 | 2505 ft | 173 kts | 353° |
| 2026-05-07 21:36 | 34.96171 | 33.79283 | 2366 ft | 159 kts | 329° |
| 2026-05-07 21:37 | 34.96994 | 33.78461 | 2234 ft | 148 kts | 308° |
| 2026-05-07 21:37 | 34.97487 | 33.77356 | 1998 ft | 148 kts | 287° |
| 2026-05-07 21:37 | 34.97607 | 33.76138 | 1820 ft | 147 kts | 267° |
| 2026-05-07 21:37 | 34.97284 | 33.74953 | 1636 ft | 149 kts | 242° |
| 2026-05-07 21:38 | 34.96671 | 33.73943 | 1543 ft | 148 kts | 233° |
| 2026-05-07 21:38 | 34.95990 | 33.73004 | 1514 ft | 147 kts | 231° |
| 2026-05-07 21:38 | 34.95293 | 33.72105 | 1510 ft | 147 kts | 230° |
| 2026-05-07 21:38 | 34.94579 | 33.71216 | 1508 ft | 145 kts | 228° |
| 2026-05-07 21:39 | 34.93840 | 33.70389 | 1448 ft | 143 kts | 226° |
| 2026-05-07 21:39 | 34.93114 | 33.69551 | 1313 ft | 142 kts | 229° |
| 2026-05-07 21:39 | 34.92413 | 33.68689 | 1135 ft | 143 kts | 228° |
| 2026-05-07 21:39 | 34.91711 | 33.67845 | 963 ft | 142 kts | 229° |
| 2026-05-07 21:40 | 34.91019 | 33.66978 | 885 ft | 143 kts | 230° |
| 2026-05-07 21:40 | 34.90340 | 33.66106 | 709 ft | 143 kts | 233° |
| 2026-05-07 21:40 | 34.89653 | 33.65221 | 405 ft | 142 kts | 230° |
| 2026-05-07 21:40 | 34.88967 | 33.64364 | 244 ft | 143 kts | 229° |
| 2026-05-07 21:41 | 34.88274 | 33.63497 | 63 ft | 142 kts | 229° |
| 2026-05-07 21:41 | 34.87597 | 33.62659 | 14 ft | 124 kts | 225° |
| 2026-05-07 21:41 | 34.87197 | 33.62176 | 14 ft | 37 kts | 226° |
| 2026-05-07 21:41 | 34.87045 | 33.61976 | 14 ft | 23 kts | 233° |
| 2026-05-07 21:42 | 34.86977 | 33.61815 | 14 ft | 13 kts | 251° |
| 2026-05-07 21:42 | 34.86952 | 33.61706 | 14 ft | 13 kts | 255° |
| 2026-05-07 21:42 | 34.86927 | 33.61592 | 14 ft | 14 kts | 256° |
| 2026-05-07 21:42 | 34.86901 | 33.61476 | 14 ft | 14 kts | 252° |
| 2026-05-07 21:43 | 34.86886 | 33.61381 | 14 ft | 11 kts | 298° |
| 2026-05-07 21:43 | 34.86941 | 33.61309 | 14 ft | 12 kts | 315° |
| 2026-05-07 21:43 | 34.86989 | 33.61248 | 14 ft | 7 kts | 300° |
| 2026-05-07 21:43 | 34.86982 | 33.61219 | 14 ft | 4 kts | 232° |
| 2026-05-07 21:44 | 34.86959 | 33.61190 | 14 ft | 5 kts | 224° |
| 2026-05-07 21:44 | 34.86946 | 33.61175 | 14 ft | 0 kts | 224° |